sensor_id;sensor_type;location;lat;lon;timestamp;P1;durP1;ratioP1;P2;durP2;ratioP2
40669;SDS011;26355;45.528;9.234;2023-05-10T00:00:27;23.92;;;13.73;;
40669;SDS011;26355;45.528;9.234;2023-05-10T00:02:52;22.52;;;13.13;;
40669;SDS011;26355;45.528;9.234;2023-05-10T00:05:18;21.90;;;12.32;;
40669;SDS011;26355;45.528;9.234;2023-05-10T00:07:44;22.35;;;13.10;;
40669;SDS011;26355;45.528;9.234;2023-05-10T00:10:10;23.20;;;13.13;;
40669;SDS011;26355;45.528;9.234;2023-05-10T00:12:36;20.55;;;11.98;;
40669;SDS011;26355;45.528;9.234;2023-05-10T00:15:02;22.83;;;12.52;;
40669;SDS011;26355;45.528;9.234;2023-05-10T00:17:28;20.98;;;12.48;;
40669;SDS011;26355;45.528;9.234;2023-05-10T00:19:53;22.35;;;11.38;;
40669;SDS011;26355;45.528;9.234;2023-05-10T00:22:19;20.73;;;11.88;;
40669;SDS011;26355;45.528;9.234;2023-05-10T00:24:45;22.60;;;13.18;;
40669;SDS011;26355;45.528;9.234;2023-05-10T00:27:11;21.17;;;12.13;;
40669;SDS011;26355;45.528;9.234;2023-05-10T00:29:36;21.67;;;12.98;;
40669;SDS011;26355;45.528;9.234;2023-05-10T00:32:02;20.90;;;12.68;;
40669;SDS011;26355;45.528;9.234;2023-05-10T00:34:28;21.80;;;13.18;;
40669;SDS011;26355;45.528;9.234;2023-05-10T00:36:53;22.33;;;13.18;;
40669;SDS011;26355;45.528;9.234;2023-05-10T00:39:19;22.30;;;13.35;;
40669;SDS011;26355;45.528;9.234;2023-05-10T00:41:45;25.02;;;13.98;;
40669;SDS011;26355;45.528;9.234;2023-05-10T00:44:10;24.30;;;14.15;;
40669;SDS011;26355;45.528;9.234;2023-05-10T00:46:36;22.92;;;13.45;;
40669;SDS011;26355;45.528;9.234;2023-05-10T00:49:02;22.90;;;13.05;;
40669;SDS011;26355;45.528;9.234;2023-05-10T00:51:27;23.17;;;14.02;;
40669;SDS011;26355;45.528;9.234;2023-05-10T00:53:53;21.58;;;12.75;;
40669;SDS011;26355;45.528;9.234;2023-05-10T00:56:20;21.40;;;11.93;;
40669;SDS011;26355;45.528;9.234;2023-05-10T00:58:48;23.17;;;13.02;;
40669;SDS011;26355;45.528;9.234;2023-05-10T01:01:14;24.10;;;12.43;;
40669;SDS011;26355;45.528;9.234;2023-05-10T01:03:39;23.45;;;12.82;;
40669;SDS011;26355;45.528;9.234;2023-05-10T01:06:05;22.73;;;13.05;;
40669;SDS011;26355;45.528;9.234;2023-05-10T01:08:31;23.20;;;12.50;;
40669;SDS011;26355;45.528;9.234;2023-05-10T01:10:57;23.63;;;12.43;;
40669;SDS011;26355;45.528;9.234;2023-05-10T01:13:44;21.25;;;12.10;;
40669;SDS011;26355;45.528;9.234;2023-05-10T01:16:10;21.30;;;11.82;;
40669;SDS011;26355;45.528;9.234;2023-05-10T01:18:38;23.15;;;11.93;;
40669;SDS011;26355;45.528;9.234;2023-05-10T01:21:27;22.75;;;12.75;;
40669;SDS011;26355;45.528;9.234;2023-05-10T01:32:36;20.92;;;12.10;;
40669;SDS011;26355;45.528;9.234;2023-05-10T01:38:18;23.55;;;12.27;;
40669;SDS011;26355;45.528;9.234;2023-05-10T01:41:03;21.52;;;11.48;;
40669;SDS011;26355;45.528;9.234;2023-05-10T01:43:36;23.05;;;12.10;;
40669;SDS011;26355;45.528;9.234;2023-05-10T01:48:40;19.83;;;10.75;;
40669;SDS011;26355;45.528;9.234;2023-05-10T01:51:12;21.23;;;10.63;;
40669;SDS011;26355;45.528;9.234;2023-05-10T01:53:41;19.27;;;10.50;;
40669;SDS011;26355;45.528;9.234;2023-05-10T01:56:09;19.73;;;10.35;;
40669;SDS011;26355;45.528;9.234;2023-05-10T01:58:36;19.30;;;9.43;;
40669;SDS011;26355;45.528;9.234;2023-05-10T02:01:05;17.92;;;8.52;;
40669;SDS011;26355;45.528;9.234;2023-05-10T02:03:31;17.97;;;8.43;;
40669;SDS011;26355;45.528;9.234;2023-05-10T02:06:00;17.70;;;8.25;;
40669;SDS011;26355;45.528;9.234;2023-05-10T02:08:28;16.40;;;7.38;;
40669;SDS011;26355;45.528;9.234;2023-05-10T02:10:55;15.40;;;6.97;;
40669;SDS011;26355;45.528;9.234;2023-05-10T02:13:23;15.50;;;6.40;;
40669;SDS011;26355;45.528;9.234;2023-05-10T02:15:50;15.40;;;6.32;;
40669;SDS011;26355;45.528;9.234;2023-05-10T02:18:17;15.88;;;6.38;;
40669;SDS011;26355;45.528;9.234;2023-05-10T02:20:45;15.77;;;6.32;;
40669;SDS011;26355;45.528;9.234;2023-05-10T02:23:11;18.33;;;5.97;;
40669;SDS011;26355;45.528;9.234;2023-05-10T02:25:38;14.77;;;5.55;;
40669;SDS011;26355;45.528;9.234;2023-05-10T02:28:05;14.65;;;5.60;;
40669;SDS011;26355;45.528;9.234;2023-05-10T02:30:32;14.85;;;5.57;;
40669;SDS011;26355;45.528;9.234;2023-05-10T02:37:52;14.45;;;5.60;;
40669;SDS011;26355;45.528;9.234;2023-05-10T02:40:19;15.85;;;5.90;;
40669;SDS011;26355;45.528;9.234;2023-05-10T02:42:47;15.38;;;6.30;;
40669;SDS011;26355;45.528;9.234;2023-05-10T02:45:17;14.18;;;5.60;;
40669;SDS011;26355;45.528;9.234;2023-05-10T02:47:45;14.25;;;6.03;;
40669;SDS011;26355;45.528;9.234;2023-05-10T02:50:11;14.48;;;6.00;;
40669;SDS011;26355;45.528;9.234;2023-05-10T02:52:38;17.60;;;6.10;;
40669;SDS011;26355;45.528;9.234;2023-05-10T02:55:06;15.65;;;6.78;;
40669;SDS011;26355;45.528;9.234;2023-05-10T02:57:38;14.75;;;6.05;;
40669;SDS011;26355;45.528;9.234;2023-05-10T03:00:06;15.90;;;6.35;;
40669;SDS011;26355;45.528;9.234;2023-05-10T03:02:32;16.40;;;6.50;;
40669;SDS011;26355;45.528;9.234;2023-05-10T03:04:57;15.65;;;6.70;;
40669;SDS011;26355;45.528;9.234;2023-05-10T03:07:23;15.65;;;7.05;;
40669;SDS011;26355;45.528;9.234;2023-05-10T03:09:49;15.75;;;6.90;;
40669;SDS011;26355;45.528;9.234;2023-05-10T03:12:24;16.88;;;6.93;;
40669;SDS011;26355;45.528;9.234;2023-05-10T03:17:48;17.00;;;6.80;;
40669;SDS011;26355;45.528;9.234;2023-05-10T03:20:22;18.10;;;5.95;;
40669;SDS011;26355;45.528;9.234;2023-05-10T03:23:22;16.75;;;6.40;;
40669;SDS011;26355;45.528;9.234;2023-05-10T03:26:01;14.90;;;5.97;;
40669;SDS011;26355;45.528;9.234;2023-05-10T03:28:29;17.67;;;6.03;;
40669;SDS011;26355;45.528;9.234;2023-05-10T03:30:56;14.85;;;5.97;;
40669;SDS011;26355;45.528;9.234;2023-05-10T03:33:22;15.23;;;6.28;;
40669;SDS011;26355;45.528;9.234;2023-05-10T03:35:48;15.15;;;5.88;;
40669;SDS011;26355;45.528;9.234;2023-05-10T03:38:13;16.10;;;6.68;;
40669;SDS011;26355;45.528;9.234;2023-05-10T03:40:39;14.73;;;5.88;;
40669;SDS011;26355;45.528;9.234;2023-05-10T03:43:05;16.15;;;6.00;;
40669;SDS011;26355;45.528;9.234;2023-05-10T03:45:31;14.80;;;5.32;;
40669;SDS011;26355;45.528;9.234;2023-05-10T03:47:57;14.15;;;5.55;;
40669;SDS011;26355;45.528;9.234;2023-05-10T03:50:23;15.05;;;5.10;;
40669;SDS011;26355;45.528;9.234;2023-05-10T03:52:49;13.25;;;4.88;;
40669;SDS011;26355;45.528;9.234;2023-05-10T03:55:14;13.98;;;5.20;;
40669;SDS011;26355;45.528;9.234;2023-05-10T03:57:40;13.25;;;5.22;;
40669;SDS011;26355;45.528;9.234;2023-05-10T04:00:05;14.43;;;5.35;;
40669;SDS011;26355;45.528;9.234;2023-05-10T04:02:31;14.05;;;5.13;;
40669;SDS011;26355;45.528;9.234;2023-05-10T04:04:57;14.45;;;4.85;;
40669;SDS011;26355;45.528;9.234;2023-05-10T04:07:22;13.90;;;5.20;;
40669;SDS011;26355;45.528;9.234;2023-05-10T04:09:48;14.98;;;5.38;;
40669;SDS011;26355;45.528;9.234;2023-05-10T04:12:14;13.93;;;5.05;;
40669;SDS011;26355;45.528;9.234;2023-05-10T04:14:40;13.65;;;5.22;;
40669;SDS011;26355;45.528;9.234;2023-05-10T04:17:05;13.60;;;4.57;;
40669;SDS011;26355;45.528;9.234;2023-05-10T04:19:31;13.27;;;5.15;;
40669;SDS011;26355;45.528;9.234;2023-05-10T04:21:57;13.57;;;4.70;;
40669;SDS011;26355;45.528;9.234;2023-05-10T04:24:24;15.25;;;4.93;;
40669;SDS011;26355;45.528;9.234;2023-05-10T04:26:50;14.07;;;4.68;;
40669;SDS011;26355;45.528;9.234;2023-05-10T04:29:15;14.35;;;5.30;;
40669;SDS011;26355;45.528;9.234;2023-05-10T04:31:41;13.35;;;4.95;;
40669;SDS011;26355;45.528;9.234;2023-05-10T04:34:07;13.32;;;4.82;;
40669;SDS011;26355;45.528;9.234;2023-05-10T04:36:32;11.73;;;4.45;;
40669;SDS011;26355;45.528;9.234;2023-05-10T04:41:25;13.75;;;5.18;;
40669;SDS011;26355;45.528;9.234;2023-05-10T04:43:51;14.20;;;5.25;;
40669;SDS011;26355;45.528;9.234;2023-05-10T04:46:16;12.20;;;4.47;;
40669;SDS011;26355;45.528;9.234;2023-05-10T04:48:42;14.07;;;4.57;;
40669;SDS011;26355;45.528;9.234;2023-05-10T04:51:08;12.98;;;4.72;;
40669;SDS011;26355;45.528;9.234;2023-05-10T04:53:33;14.35;;;4.35;;
40669;SDS011;26355;45.528;9.234;2023-05-10T04:55:59;11.73;;;4.40;;
40669;SDS011;26355;45.528;9.234;2023-05-10T04:58:24;14.10;;;4.68;;
40669;SDS011;26355;45.528;9.234;2023-05-10T05:00:50;13.10;;;4.50;;
40669;SDS011;26355;45.528;9.234;2023-05-10T05:03:16;13.25;;;4.50;;
40669;SDS011;26355;45.528;9.234;2023-05-10T05:05:42;11.63;;;4.20;;
40669;SDS011;26355;45.528;9.234;2023-05-10T05:08:09;11.25;;;4.25;;
40669;SDS011;26355;45.528;9.234;2023-05-10T05:10:34;12.93;;;4.78;;
40669;SDS011;26355;45.528;9.234;2023-05-10T05:13:00;15.73;;;4.93;;
40669;SDS011;26355;45.528;9.234;2023-05-10T05:15:25;17.02;;;5.80;;
40669;SDS011;26355;45.528;9.234;2023-05-10T05:17:51;14.95;;;5.00;;
40669;SDS011;26355;45.528;9.234;2023-05-10T05:20:17;15.00;;;5.38;;
40669;SDS011;26355;45.528;9.234;2023-05-10T05:22:43;18.85;;;5.35;;
40669;SDS011;26355;45.528;9.234;2023-05-10T05:25:09;15.60;;;4.80;;
40669;SDS011;26355;45.528;9.234;2023-05-10T05:27:36;12.98;;;4.57;;
40669;SDS011;26355;45.528;9.234;2023-05-10T05:30:02;13.20;;;4.82;;
40669;SDS011;26355;45.528;9.234;2023-05-10T05:32:28;13.80;;;4.43;;
40669;SDS011;26355;45.528;9.234;2023-05-10T05:34:53;14.35;;;4.85;;
40669;SDS011;26355;45.528;9.234;2023-05-10T05:37:20;13.35;;;4.97;;
40669;SDS011;26355;45.528;9.234;2023-05-10T05:39:49;13.80;;;4.78;;
40669;SDS011;26355;45.528;9.234;2023-05-10T05:42:15;13.05;;;5.15;;
40669;SDS011;26355;45.528;9.234;2023-05-10T05:44:42;15.00;;;5.03;;
40669;SDS011;26355;45.528;9.234;2023-05-10T05:47:08;12.52;;;4.63;;
40669;SDS011;26355;45.528;9.234;2023-05-10T05:49:34;14.90;;;5.10;;
40669;SDS011;26355;45.528;9.234;2023-05-10T05:52:00;16.00;;;5.43;;
40669;SDS011;26355;45.528;9.234;2023-05-10T05:54:26;15.20;;;5.65;;
40669;SDS011;26355;45.528;9.234;2023-05-10T05:56:58;13.93;;;5.53;;
40669;SDS011;26355;45.528;9.234;2023-05-10T05:59:25;14.20;;;5.40;;
40669;SDS011;26355;45.528;9.234;2023-05-10T06:01:51;14.75;;;5.75;;
40669;SDS011;26355;45.528;9.234;2023-05-10T06:04:16;14.32;;;5.28;;
40669;SDS011;26355;45.528;9.234;2023-05-10T06:06:42;14.68;;;5.82;;
40669;SDS011;26355;45.528;9.234;2023-05-10T06:09:08;16.38;;;5.45;;
40669;SDS011;26355;45.528;9.234;2023-05-10T06:11:35;14.63;;;5.47;;
40669;SDS011;26355;45.528;9.234;2023-05-10T06:14:00;14.90;;;6.10;;
40669;SDS011;26355;45.528;9.234;2023-05-10T06:16:27;15.73;;;5.80;;
40669;SDS011;26355;45.528;9.234;2023-05-10T06:18:53;14.75;;;5.53;;
40669;SDS011;26355;45.528;9.234;2023-05-10T06:21:18;15.48;;;6.05;;
40669;SDS011;26355;45.528;9.234;2023-05-10T06:23:44;15.93;;;6.25;;
40669;SDS011;26355;45.528;9.234;2023-05-10T06:26:10;15.63;;;5.90;;
40669;SDS011;26355;45.528;9.234;2023-05-10T06:28:35;15.52;;;6.32;;
40669;SDS011;26355;45.528;9.234;2023-05-10T06:31:03;15.73;;;6.55;;
40669;SDS011;26355;45.528;9.234;2023-05-10T06:33:29;16.20;;;6.22;;
40669;SDS011;26355;45.528;9.234;2023-05-10T06:35:55;15.57;;;6.15;;
40669;SDS011;26355;45.528;9.234;2023-05-10T06:38:20;17.45;;;6.35;;
40669;SDS011;26355;45.528;9.234;2023-05-10T06:40:46;17.17;;;6.25;;
40669;SDS011;26355;45.528;9.234;2023-05-10T06:43:12;16.10;;;6.18;;
40669;SDS011;26355;45.528;9.234;2023-05-10T06:45:37;15.13;;;6.35;;
40669;SDS011;26355;45.528;9.234;2023-05-10T06:48:03;16.45;;;6.68;;
40669;SDS011;26355;45.528;9.234;2023-05-10T06:50:28;15.43;;;5.70;;
40669;SDS011;26355;45.528;9.234;2023-05-10T06:52:54;16.58;;;6.63;;
40669;SDS011;26355;45.528;9.234;2023-05-10T06:55:20;15.10;;;6.22;;
40669;SDS011;26355;45.528;9.234;2023-05-10T06:57:46;16.02;;;6.47;;
40669;SDS011;26355;45.528;9.234;2023-05-10T07:00:12;16.75;;;6.03;;
40669;SDS011;26355;45.528;9.234;2023-05-10T07:02:38;15.40;;;6.00;;
40669;SDS011;26355;45.528;9.234;2023-05-10T07:05:04;15.73;;;6.10;;
40669;SDS011;26355;45.528;9.234;2023-05-10T07:07:30;14.52;;;6.28;;
40669;SDS011;26355;45.528;9.234;2023-05-10T07:09:56;15.25;;;6.15;;
40669;SDS011;26355;45.528;9.234;2023-05-10T07:12:22;15.73;;;6.47;;
40669;SDS011;26355;45.528;9.234;2023-05-10T07:14:48;16.27;;;6.47;;
40669;SDS011;26355;45.528;9.234;2023-05-10T07:17:14;14.43;;;6.00;;
40669;SDS011;26355;45.528;9.234;2023-05-10T07:19:40;14.60;;;5.88;;
40669;SDS011;26355;45.528;9.234;2023-05-10T07:22:05;14.98;;;5.68;;
40669;SDS011;26355;45.528;9.234;2023-05-10T07:24:32;13.13;;;4.78;;
40669;SDS011;26355;45.528;9.234;2023-05-10T07:26:58;13.35;;;4.95;;
40669;SDS011;26355;45.528;9.234;2023-05-10T07:29:23;13.80;;;5.18;;
40669;SDS011;26355;45.528;9.234;2023-05-10T07:31:49;14.20;;;5.18;;
40669;SDS011;26355;45.528;9.234;2023-05-10T07:34:15;14.10;;;5.45;;
40669;SDS011;26355;45.528;9.234;2023-05-10T07:36:40;14.68;;;5.95;;
40669;SDS011;26355;45.528;9.234;2023-05-10T07:39:06;13.80;;;5.35;;
40669;SDS011;26355;45.528;9.234;2023-05-10T07:41:32;14.90;;;5.10;;
40669;SDS011;26355;45.528;9.234;2023-05-10T07:43:57;14.82;;;5.45;;
40669;SDS011;26355;45.528;9.234;2023-05-10T07:46:23;14.43;;;5.55;;
40669;SDS011;26355;45.528;9.234;2023-05-10T07:48:49;16.20;;;7.93;;
40669;SDS011;26355;45.528;9.234;2023-05-10T07:51:14;15.98;;;7.60;;
40669;SDS011;26355;45.528;9.234;2023-05-10T07:53:40;15.65;;;5.68;;
40669;SDS011;26355;45.528;9.234;2023-05-10T07:56:22;13.65;;;5.53;;
40669;SDS011;26355;45.528;9.234;2023-05-10T07:58:57;15.20;;;6.32;;
40669;SDS011;26355;45.528;9.234;2023-05-10T08:01:26;15.40;;;6.30;;
40669;SDS011;26355;45.528;9.234;2023-05-10T08:03:52;15.90;;;5.35;;
40669;SDS011;26355;45.528;9.234;2023-05-10T08:06:18;14.70;;;5.57;;
40669;SDS011;26355;45.528;9.234;2023-05-10T08:08:45;15.25;;;6.20;;
40669;SDS011;26355;45.528;9.234;2023-05-10T08:11:16;14.85;;;6.28;;
40669;SDS011;26355;45.528;9.234;2023-05-10T08:13:42;14.23;;;5.53;;
40669;SDS011;26355;45.528;9.234;2023-05-10T08:16:08;13.05;;;5.38;;
40669;SDS011;26355;45.528;9.234;2023-05-10T08:18:34;14.60;;;5.63;;
40669;SDS011;26355;45.528;9.234;2023-05-10T08:20:59;13.80;;;5.32;;
40669;SDS011;26355;45.528;9.234;2023-05-10T08:23:25;14.68;;;5.72;;
40669;SDS011;26355;45.528;9.234;2023-05-10T08:25:50;15.23;;;5.10;;
40669;SDS011;26355;45.528;9.234;2023-05-10T08:28:16;15.38;;;5.65;;
40669;SDS011;26355;45.528;9.234;2023-05-10T08:30:42;13.25;;;5.10;;
40669;SDS011;26355;45.528;9.234;2023-05-10T08:33:07;14.98;;;5.20;;
40669;SDS011;26355;45.528;9.234;2023-05-10T08:35:33;14.32;;;5.45;;
40669;SDS011;26355;45.528;9.234;2023-05-10T08:37:59;12.82;;;4.70;;
40669;SDS011;26355;45.528;9.234;2023-05-10T08:40:25;13.57;;;4.93;;
40669;SDS011;26355;45.528;9.234;2023-05-10T08:42:55;14.68;;;5.30;;
40669;SDS011;26355;45.528;9.234;2023-05-10T08:45:36;13.55;;;5.47;;
40669;SDS011;26355;45.528;9.234;2023-05-10T08:48:08;15.23;;;5.68;;
40669;SDS011;26355;45.528;9.234;2023-05-10T08:53:01;12.77;;;4.78;;
40669;SDS011;26355;45.528;9.234;2023-05-10T08:55:31;13.40;;;4.55;;
40669;SDS011;26355;45.528;9.234;2023-05-10T08:57:58;10.73;;;4.32;;
40669;SDS011;26355;45.528;9.234;2023-05-10T09:00:25;11.45;;;3.95;;
40669;SDS011;26355;45.528;9.234;2023-05-10T09:02:51;11.38;;;4.22;;
40669;SDS011;26355;45.528;9.234;2023-05-10T09:05:17;12.43;;;4.70;;
40669;SDS011;26355;45.528;9.234;2023-05-10T09:07:43;11.00;;;4.00;;
40669;SDS011;26355;45.528;9.234;2023-05-10T09:10:09;11.23;;;4.10;;
40669;SDS011;26355;45.528;9.234;2023-05-10T09:12:35;13.63;;;4.40;;
40669;SDS011;26355;45.528;9.234;2023-05-10T09:15:01;11.68;;;4.05;;
40669;SDS011;26355;45.528;9.234;2023-05-10T09:17:28;11.30;;;4.43;;
40669;SDS011;26355;45.528;9.234;2023-05-10T09:19:58;12.45;;;4.28;;
40669;SDS011;26355;45.528;9.234;2023-05-10T09:22:24;12.32;;;4.43;;
40669;SDS011;26355;45.528;9.234;2023-05-10T09:27:36;12.60;;;4.60;;
40669;SDS011;26355;45.528;9.234;2023-05-10T09:30:03;15.10;;;5.95;;
40669;SDS011;26355;45.528;9.234;2023-05-10T09:33:03;13.05;;;4.68;;
40669;SDS011;26355;45.528;9.234;2023-05-10T09:35:23;11.77;;;3.90;;
40669;SDS011;26355;45.528;9.234;2023-05-10T09:37:51;11.02;;;4.00;;
40669;SDS011;26355;45.528;9.234;2023-05-10T09:40:19;11.88;;;4.10;;
40669;SDS011;26355;45.528;9.234;2023-05-10T09:45:29;11.43;;;3.85;;
40669;SDS011;26355;45.528;9.234;2023-05-10T09:47:56;11.90;;;4.43;;
40669;SDS011;26355;45.528;9.234;2023-05-10T09:50:22;11.88;;;4.03;;
40669;SDS011;26355;45.528;9.234;2023-05-10T09:52:49;10.30;;;3.85;;
40669;SDS011;26355;45.528;9.234;2023-05-10T09:55:20;10.38;;;3.60;;
40669;SDS011;26355;45.528;9.234;2023-05-10T09:57:47;10.35;;;3.78;;
40669;SDS011;26355;45.528;9.234;2023-05-10T10:00:17;11.40;;;4.17;;
40669;SDS011;26355;45.528;9.234;2023-05-10T10:02:48;9.02;;;3.10;;
40669;SDS011;26355;45.528;9.234;2023-05-10T10:05:20;10.00;;;3.58;;
40669;SDS011;26355;45.528;9.234;2023-05-10T10:07:45;10.25;;;4.00;;
40669;SDS011;26355;45.528;9.234;2023-05-10T10:10:12;10.80;;;4.05;;
40669;SDS011;26355;45.528;9.234;2023-05-10T10:12:38;12.20;;;4.53;;
40669;SDS011;26355;45.528;9.234;2023-05-10T10:15:05;11.88;;;4.32;;
40669;SDS011;26355;45.528;9.234;2023-05-10T10:17:32;11.25;;;4.00;;
40669;SDS011;26355;45.528;9.234;2023-05-10T10:20:02;11.18;;;4.00;;
40669;SDS011;26355;45.528;9.234;2023-05-10T10:22:28;9.80;;;3.53;;
40669;SDS011;26355;45.528;9.234;2023-05-10T10:24:53;10.30;;;3.75;;
40669;SDS011;26355;45.528;9.234;2023-05-10T10:30:13;11.18;;;3.80;;
40669;SDS011;26355;45.528;9.234;2023-05-10T10:35:33;12.60;;;4.03;;
40669;SDS011;26355;45.528;9.234;2023-05-10T10:38:00;11.55;;;3.83;;
40669;SDS011;26355;45.528;9.234;2023-05-10T10:40:26;11.43;;;4.10;;
40669;SDS011;26355;45.528;9.234;2023-05-10T10:45:19;13.00;;;4.28;;
40669;SDS011;26355;45.528;9.234;2023-05-10T10:47:46;11.88;;;4.50;;
40669;SDS011;26355;45.528;9.234;2023-05-10T10:50:11;11.93;;;4.30;;
40669;SDS011;26355;45.528;9.234;2023-05-10T10:52:44;12.18;;;4.50;;
40669;SDS011;26355;45.528;9.234;2023-05-10T10:55:20;11.05;;;4.40;;
40669;SDS011;26355;45.528;9.234;2023-05-10T10:57:50;12.57;;;4.22;;
40669;SDS011;26355;45.528;9.234;2023-05-10T11:00:29;11.88;;;4.70;;
40669;SDS011;26355;45.528;9.234;2023-05-10T11:03:04;11.80;;;4.60;;
40669;SDS011;26355;45.528;9.234;2023-05-10T11:05:39;12.30;;;4.40;;
40669;SDS011;26355;45.528;9.234;2023-05-10T11:11:03;12.77;;;4.60;;
40669;SDS011;26355;45.528;9.234;2023-05-10T11:16:18;13.32;;;4.40;;
40669;SDS011;26355;45.528;9.234;2023-05-10T11:18:51;14.18;;;4.15;;
40669;SDS011;26355;45.528;9.234;2023-05-10T11:23:59;11.20;;;3.88;;
40669;SDS011;26355;45.528;9.234;2023-05-10T11:26:30;13.15;;;4.75;;
40669;SDS011;26355;45.528;9.234;2023-05-10T11:29:00;12.13;;;4.28;;
40669;SDS011;26355;45.528;9.234;2023-05-10T11:31:26;10.73;;;3.90;;
40669;SDS011;26355;45.528;9.234;2023-05-10T11:33:53;10.60;;;4.30;;
40669;SDS011;26355;45.528;9.234;2023-05-10T11:36:23;11.20;;;4.45;;
40669;SDS011;26355;45.528;9.234;2023-05-10T11:38:50;13.45;;;4.60;;
40669;SDS011;26355;45.528;9.234;2023-05-10T11:41:17;12.80;;;4.47;;
40669;SDS011;26355;45.528;9.234;2023-05-10T11:43:46;12.63;;;4.35;;
40669;SDS011;26355;45.528;9.234;2023-05-10T11:46:13;11.98;;;4.80;;
40669;SDS011;26355;45.528;9.234;2023-05-10T11:48:40;12.48;;;4.40;;
40669;SDS011;26355;45.528;9.234;2023-05-10T11:51:10;12.82;;;4.35;;
40669;SDS011;26355;45.528;9.234;2023-05-10T11:53:36;12.80;;;5.25;;
40669;SDS011;26355;45.528;9.234;2023-05-10T11:56:06;11.38;;;4.25;;
40669;SDS011;26355;45.528;9.234;2023-05-10T11:58:33;12.05;;;4.97;;
40669;SDS011;26355;45.528;9.234;2023-05-10T12:00:59;13.45;;;4.38;;
40669;SDS011;26355;45.528;9.234;2023-05-10T12:03:26;12.98;;;4.90;;
40669;SDS011;26355;45.528;9.234;2023-05-10T12:05:52;14.70;;;5.13;;
40669;SDS011;26355;45.528;9.234;2023-05-10T12:08:20;13.32;;;4.90;;
40669;SDS011;26355;45.528;9.234;2023-05-10T12:10:47;13.35;;;4.93;;
40669;SDS011;26355;45.528;9.234;2023-05-10T12:13:13;14.63;;;5.28;;
40669;SDS011;26355;45.528;9.234;2023-05-10T12:15:40;12.95;;;4.72;;
40669;SDS011;26355;45.528;9.234;2023-05-10T12:18:08;19.75;;;6.75;;
40669;SDS011;26355;45.528;9.234;2023-05-10T12:20:35;16.35;;;5.88;;
40669;SDS011;26355;45.528;9.234;2023-05-10T12:23:01;16.20;;;5.88;;
40669;SDS011;26355;45.528;9.234;2023-05-10T12:25:32;13.48;;;5.70;;
40669;SDS011;26355;45.528;9.234;2023-05-10T12:27:58;15.27;;;6.68;;
40669;SDS011;26355;45.528;9.234;2023-05-10T12:30:29;14.27;;;5.55;;
40669;SDS011;26355;45.528;9.234;2023-05-10T12:33:17;14.88;;;5.90;;
40669;SDS011;26355;45.528;9.234;2023-05-10T12:35:46;14.48;;;6.00;;
40669;SDS011;26355;45.528;9.234;2023-05-10T12:38:29;14.13;;;5.63;;
40669;SDS011;26355;45.528;9.234;2023-05-10T12:40:56;14.52;;;5.75;;
40669;SDS011;26355;45.528;9.234;2023-05-10T12:43:26;14.50;;;5.70;;
40669;SDS011;26355;45.528;9.234;2023-05-10T12:45:52;14.25;;;6.28;;
40669;SDS011;26355;45.528;9.234;2023-05-10T12:48:17;13.85;;;5.45;;
40669;SDS011;26355;45.528;9.234;2023-05-10T12:50:43;14.27;;;5.95;;
40669;SDS011;26355;45.528;9.234;2023-05-10T12:53:09;13.85;;;5.50;;
40669;SDS011;26355;45.528;9.234;2023-05-10T12:55:34;12.88;;;5.35;;
40669;SDS011;26355;45.528;9.234;2023-05-10T12:58:00;13.93;;;5.45;;
40669;SDS011;26355;45.528;9.234;2023-05-10T13:00:26;11.82;;;5.05;;
40669;SDS011;26355;45.528;9.234;2023-05-10T13:02:51;14.23;;;5.50;;
40669;SDS011;26355;45.528;9.234;2023-05-10T13:05:17;13.07;;;4.93;;
40669;SDS011;26355;45.528;9.234;2023-05-10T13:07:43;11.30;;;4.65;;
40669;SDS011;26355;45.528;9.234;2023-05-10T13:10:09;12.90;;;4.15;;
40669;SDS011;26355;45.528;9.234;2023-05-10T13:12:35;12.73;;;5.10;;
40669;SDS011;26355;45.528;9.234;2023-05-10T13:15:01;13.88;;;5.13;;
40669;SDS011;26355;45.528;9.234;2023-05-10T13:17:27;14.38;;;4.78;;
40669;SDS011;26355;45.528;9.234;2023-05-10T13:19:53;12.32;;;4.85;;
40669;SDS011;26355;45.528;9.234;2023-05-10T13:22:19;13.82;;;4.78;;
40669;SDS011;26355;45.528;9.234;2023-05-10T13:24:44;14.27;;;5.00;;
40669;SDS011;26355;45.528;9.234;2023-05-10T13:27:10;10.27;;;4.18;;
40669;SDS011;26355;45.528;9.234;2023-05-10T13:29:36;13.82;;;4.97;;
40669;SDS011;26355;45.528;9.234;2023-05-10T13:32:01;13.68;;;4.82;;
40669;SDS011;26355;45.528;9.234;2023-05-10T13:34:27;12.75;;;4.97;;
40669;SDS011;26355;45.528;9.234;2023-05-10T13:36:53;12.82;;;5.00;;
40669;SDS011;26355;45.528;9.234;2023-05-10T13:39:19;13.27;;;4.93;;
40669;SDS011;26355;45.528;9.234;2023-05-10T13:41:45;13.20;;;4.87;;
40669;SDS011;26355;45.528;9.234;2023-05-10T13:44:12;14.15;;;5.25;;
40669;SDS011;26355;45.528;9.234;2023-05-10T13:46:39;13.98;;;5.13;;
40669;SDS011;26355;45.528;9.234;2023-05-10T13:49:05;15.52;;;5.57;;
40669;SDS011;26355;45.528;9.234;2023-05-10T13:51:31;14.57;;;5.53;;
40669;SDS011;26355;45.528;9.234;2023-05-10T13:53:56;13.40;;;5.18;;
40669;SDS011;26355;45.528;9.234;2023-05-10T13:56:22;13.75;;;5.25;;
40669;SDS011;26355;45.528;9.234;2023-05-10T13:58:48;14.20;;;5.18;;
40669;SDS011;26355;45.528;9.234;2023-05-10T14:01:13;12.70;;;5.13;;
40669;SDS011;26355;45.528;9.234;2023-05-10T14:03:39;15.00;;;5.28;;
40669;SDS011;26355;45.528;9.234;2023-05-10T14:06:05;13.10;;;5.35;;
40669;SDS011;26355;45.528;9.234;2023-05-10T14:08:32;14.40;;;5.22;;
40669;SDS011;26355;45.528;9.234;2023-05-10T14:10:58;13.27;;;5.57;;
40669;SDS011;26355;45.528;9.234;2023-05-10T14:13:23;14.02;;;5.40;;
40669;SDS011;26355;45.528;9.234;2023-05-10T14:15:50;13.77;;;5.32;;
40669;SDS011;26355;45.528;9.234;2023-05-10T14:18:15;14.50;;;5.60;;
40669;SDS011;26355;45.528;9.234;2023-05-10T14:20:41;12.63;;;4.72;;
40669;SDS011;26355;45.528;9.234;2023-05-10T14:23:06;12.75;;;5.03;;
40669;SDS011;26355;45.528;9.234;2023-05-10T14:25:32;13.35;;;5.63;;
40669;SDS011;26355;45.528;9.234;2023-05-10T14:27:59;15.25;;;5.60;;
40669;SDS011;26355;45.528;9.234;2023-05-10T14:30:25;13.48;;;5.35;;
40669;SDS011;26355;45.528;9.234;2023-05-10T14:32:50;14.95;;;5.47;;
40669;SDS011;26355;45.528;9.234;2023-05-10T14:35:18;13.88;;;5.43;;
40669;SDS011;26355;45.528;9.234;2023-05-10T14:37:44;13.05;;;5.53;;
40669;SDS011;26355;45.528;9.234;2023-05-10T14:40:10;12.85;;;5.10;;
40669;SDS011;26355;45.528;9.234;2023-05-10T14:42:36;16.80;;;5.55;;
40669;SDS011;26355;45.528;9.234;2023-05-10T14:45:01;14.05;;;5.38;;
40669;SDS011;26355;45.528;9.234;2023-05-10T14:47:27;15.73;;;5.90;;
40669;SDS011;26355;45.528;9.234;2023-05-10T14:49:53;17.00;;;5.97;;
40669;SDS011;26355;45.528;9.234;2023-05-10T14:52:18;14.07;;;5.72;;
40669;SDS011;26355;45.528;9.234;2023-05-10T14:54:44;16.25;;;6.25;;
40669;SDS011;26355;45.528;9.234;2023-05-10T14:57:10;13.52;;;5.18;;
40669;SDS011;26355;45.528;9.234;2023-05-10T14:59:35;15.13;;;5.55;;
40669;SDS011;26355;45.528;9.234;2023-05-10T15:02:01;13.60;;;6.03;;
40669;SDS011;26355;45.528;9.234;2023-05-10T15:04:26;13.63;;;5.80;;
40669;SDS011;26355;45.528;9.234;2023-05-10T15:06:52;13.38;;;5.80;;
40669;SDS011;26355;45.528;9.234;2023-05-10T15:09:23;14.77;;;5.93;;
40669;SDS011;26355;45.528;9.234;2023-05-10T15:11:49;13.05;;;5.43;;
40669;SDS011;26355;45.528;9.234;2023-05-10T15:14:15;13.73;;;5.53;;
40669;SDS011;26355;45.528;9.234;2023-05-10T15:16:40;14.88;;;6.57;;
40669;SDS011;26355;45.528;9.234;2023-05-10T15:19:06;14.70;;;6.38;;
40669;SDS011;26355;45.528;9.234;2023-05-10T15:21:32;15.20;;;6.50;;